CYZF

Yellowknife Airport

Yellowknife, Northwest Territories, Canada
METAR CYZF 150000Z 13006KT 10SM -SHRA SCT070 BKN090 OVC120 15/14 A2938 RMK AC3AC3AC2 CVCTV CLD EMBD SLP958 DENSITY ALT 1500FT
Observed Flight Rules
Aug-15 @ 00:00 UTC (an hour ago) Visual Flight Rules
Wind Visibility Clouds Conditions
130° at 6 knots 10 miles
  • Scattered at 7,000' AGL
  • Broken at 9,000' AGL
  • Overcast at 12,000' AGL
  • Light Rain
Temperatures Readings
Current 15°C / 59°F
Dewpoint 14°C / 57°F
Humidity 94%
Altimeter 29.38" Hg
Pressure 995.8 hPa
Elevation 206
METAR CYZF 150000Z 13006KT 10SM -SHRA SCT070 BKN090 OVC120 15/14 A2938 RMK AC3AC3AC2 CVCTV CLD EMBD SLP958 DENSITY ALT 1500FT
Observed Flight Rules
Aug-15 @ 00:00 UTC
(an hour ago)
VFR
Wind Visibility
130° at 6 knots 10 miles
Clouds
  • Scattered at 7,000' AGL
  • Broken at 9,000' AGL
  • Overcast at 12,000' AGL
Conditions
  • Light Rain
Temperature Dewpoint
15°C / 59°F 14°C / 57°F
Humidity Altimeter Pressure
94% 29.38" Hg 995.8 hPa